sensor_id;sensor_type;location;lat;lon;timestamp;P1;durP1;ratioP1;P2;durP2;ratioP2
2061;SDS011;11070;51.336;12.340;2023-11-21T00:01:04;4.82;;;4.32;;
2061;SDS011;11070;51.336;12.340;2023-11-21T00:03:30;6.03;;;4.45;;
2061;SDS011;11070;51.336;12.340;2023-11-21T00:05:56;5.43;;;4.18;;
2061;SDS011;11070;51.336;12.340;2023-11-21T00:08:22;4.90;;;4.50;;
2061;SDS011;11070;51.336;12.340;2023-11-21T00:10:48;5.10;;;4.20;;
2061;SDS011;11070;51.336;12.340;2023-11-21T00:13:13;5.97;;;4.50;;
2061;SDS011;11070;51.336;12.340;2023-11-21T00:15:39;5.17;;;4.33;;
2061;SDS011;11070;51.336;12.340;2023-11-21T00:18:05;4.32;;;3.92;;
2061;SDS011;11070;51.336;12.340;2023-11-21T00:20:31;6.57;;;4.63;;
2061;SDS011;11070;51.336;12.340;2023-11-21T00:22:57;5.30;;;4.50;;
2061;SDS011;11070;51.336;12.340;2023-11-21T00:25:22;6.20;;;4.40;;
2061;SDS011;11070;51.336;12.340;2023-11-21T00:27:49;4.70;;;4.30;;
2061;SDS011;11070;51.336;12.340;2023-11-21T00:30:15;4.83;;;4.33;;
2061;SDS011;11070;51.336;12.340;2023-11-21T00:32:41;4.37;;;3.97;;
2061;SDS011;11070;51.336;12.340;2023-11-21T00:35:07;4.90;;;4.40;;
2061;SDS011;11070;51.336;12.340;2023-11-21T00:37:32;3.67;;;3.33;;
2061;SDS011;11070;51.336;12.340;2023-11-21T00:39:58;6.93;;;4.20;;
2061;SDS011;11070;51.336;12.340;2023-11-21T00:42:24;5.50;;;4.47;;
2061;SDS011;11070;51.336;12.340;2023-11-21T00:44:49;5.70;;;4.50;;
2061;SDS011;11070;51.336;12.340;2023-11-21T00:47:15;6.80;;;5.40;;
2061;SDS011;11070;51.336;12.340;2023-11-21T00:49:41;12.50;;;6.27;;
2061;SDS011;11070;51.336;12.340;2023-11-21T00:52:07;7.75;;;6.30;;
2061;SDS011;11070;51.336;12.340;2023-11-21T00:54:32;7.97;;;5.73;;
2061;SDS011;11070;51.336;12.340;2023-11-21T00:56:58;7.40;;;5.40;;
2061;SDS011;11070;51.336;12.340;2023-11-21T00:59:24;7.27;;;5.60;;
2061;SDS011;11070;51.336;12.340;2023-11-21T01:01:50;9.47;;;5.60;;
2061;SDS011;11070;51.336;12.340;2023-11-21T01:04:16;8.37;;;5.20;;
2061;SDS011;11070;51.336;12.340;2023-11-21T01:06:41;5.53;;;4.67;;
2061;SDS011;11070;51.336;12.340;2023-11-21T01:09:07;7.13;;;4.70;;
2061;SDS011;11070;51.336;12.340;2023-11-21T01:11:34;5.00;;;4.60;;
2061;SDS011;11070;51.336;12.340;2023-11-21T01:14:02;4.93;;;3.95;;
2061;SDS011;11070;51.336;12.340;2023-11-21T01:16:29;7.82;;;5.05;;
2061;SDS011;11070;51.336;12.340;2023-11-21T01:18:57;7.45;;;4.47;;
2061;SDS011;11070;51.336;12.340;2023-11-21T01:21:24;7.28;;;4.70;;
2061;SDS011;11070;51.336;12.340;2023-11-21T01:23:50;4.40;;;3.63;;
2061;SDS011;11070;51.336;12.340;2023-11-21T01:26:15;4.43;;;3.50;;
2061;SDS011;11070;51.336;12.340;2023-11-21T01:28:41;5.80;;;3.70;;
2061;SDS011;11070;51.336;12.340;2023-11-21T01:31:07;5.17;;;3.87;;
2061;SDS011;11070;51.336;12.340;2023-11-21T01:33:32;5.13;;;3.67;;
2061;SDS011;11070;51.336;12.340;2023-11-21T01:35:58;5.80;;;3.60;;
2061;SDS011;11070;51.336;12.340;2023-11-21T01:38:25;8.48;;;4.13;;
2061;SDS011;11070;51.336;12.340;2023-11-21T01:40:50;5.43;;;3.65;;
2061;SDS011;11070;51.336;12.340;2023-11-21T01:43:16;4.03;;;3.07;;
2061;SDS011;11070;51.336;12.340;2023-11-21T01:45:42;4.13;;;3.73;;
2061;SDS011;11070;51.336;12.340;2023-11-21T01:48:10;5.60;;;4.40;;
2061;SDS011;11070;51.336;12.340;2023-11-21T01:50:36;4.60;;;3.80;;
2061;SDS011;11070;51.336;12.340;2023-11-21T01:53:02;4.80;;;4.00;;
2061;SDS011;11070;51.336;12.340;2023-11-21T01:55:28;6.78;;;3.92;;
2061;SDS011;11070;51.336;12.340;2023-11-21T01:57:55;5.32;;;4.10;;
2061;SDS011;11070;51.336;12.340;2023-11-21T02:00:22;7.75;;;4.88;;
2061;SDS011;11070;51.336;12.340;2023-11-21T02:02:48;7.50;;;3.80;;
2061;SDS011;11070;51.336;12.340;2023-11-21T02:05:15;8.70;;;4.67;;
2061;SDS011;11070;51.336;12.340;2023-11-21T02:07:44;6.85;;;4.03;;
2061;SDS011;11070;51.336;12.340;2023-11-21T02:10:14;7.78;;;3.90;;
2061;SDS011;11070;51.336;12.340;2023-11-21T02:12:40;3.90;;;3.35;;
2061;SDS011;11070;51.336;12.340;2023-11-21T02:15:08;6.35;;;3.90;;
2061;SDS011;11070;51.336;12.340;2023-11-21T02:17:42;7.78;;;6.35;;
2061;SDS011;11070;51.336;12.340;2023-11-21T02:20:16;6.63;;;3.85;;
2061;SDS011;11070;51.336;12.340;2023-11-21T02:22:52;5.93;;;4.00;;
2061;SDS011;11070;51.336;12.340;2023-11-21T02:25:25;6.40;;;3.30;;
2061;SDS011;11070;51.336;12.340;2023-11-21T02:27:59;3.60;;;3.30;;
2061;SDS011;11070;51.336;12.340;2023-11-21T02:30:26;4.32;;;3.40;;
2061;SDS011;11070;51.336;12.340;2023-11-21T02:32:58;4.72;;;3.47;;
2061;SDS011;11070;51.336;12.340;2023-11-21T02:35:27;7.80;;;3.58;;
2061;SDS011;11070;51.336;12.340;2023-11-21T02:37:53;4.43;;;3.50;;
2061;SDS011;11070;51.336;12.340;2023-11-21T02:40:20;5.53;;;3.90;;
2061;SDS011;11070;51.336;12.340;2023-11-21T02:42:46;8.00;;;4.10;;
2061;SDS011;11070;51.336;12.340;2023-11-21T02:45:16;5.47;;;3.50;;
2061;SDS011;11070;51.336;12.340;2023-11-21T02:47:45;4.32;;;3.78;;
2061;SDS011;11070;51.336;12.340;2023-11-21T02:50:11;4.47;;;3.83;;
2061;SDS011;11070;51.336;12.340;2023-11-21T02:52:37;8.40;;;4.60;;
2061;SDS011;11070;51.336;12.340;2023-11-21T02:55:05;5.90;;;4.05;;
2061;SDS011;11070;51.336;12.340;2023-11-21T02:57:32;4.35;;;3.95;;
2061;SDS011;11070;51.336;12.340;2023-11-21T02:59:58;6.00;;;4.25;;
2061;SDS011;11070;51.336;12.340;2023-11-21T03:02:25;6.97;;;4.30;;
2061;SDS011;11070;51.336;12.340;2023-11-21T03:04:50;6.47;;;4.70;;
2061;SDS011;11070;51.336;12.340;2023-11-21T03:07:16;4.97;;;4.47;;
2061;SDS011;11070;51.336;12.340;2023-11-21T03:09:44;4.78;;;3.90;;
2061;SDS011;11070;51.336;12.340;2023-11-21T03:12:10;4.95;;;4.45;;
2061;SDS011;11070;51.336;12.340;2023-11-21T03:14:40;5.40;;;4.60;;
2061;SDS011;11070;51.336;12.340;2023-11-21T03:17:06;6.40;;;4.57;;
2061;SDS011;11070;51.336;12.340;2023-11-21T03:19:32;6.03;;;4.87;;
2061;SDS011;11070;51.336;12.340;2023-11-21T03:21:58;8.00;;;5.47;;
2061;SDS011;11070;51.336;12.340;2023-11-21T03:24:24;5.60;;;4.70;;
2061;SDS011;11070;51.336;12.340;2023-11-21T03:26:51;11.43;;;5.72;;
2061;SDS011;11070;51.336;12.340;2023-11-21T03:29:17;9.60;;;6.10;;
2061;SDS011;11070;51.336;12.340;2023-11-21T03:31:43;8.07;;;5.30;;
2061;SDS011;11070;51.336;12.340;2023-11-21T03:34:11;10.73;;;6.30;;
2061;SDS011;11070;51.336;12.340;2023-11-21T03:36:41;10.02;;;6.38;;
2061;SDS011;11070;51.336;12.340;2023-11-21T03:39:07;9.90;;;5.80;;
2061;SDS011;11070;51.336;12.340;2023-11-21T03:41:32;10.33;;;6.00;;
2061;SDS011;11070;51.336;12.340;2023-11-21T03:43:59;9.20;;;5.82;;
2061;SDS011;11070;51.336;12.340;2023-11-21T03:46:24;11.97;;;5.83;;
2061;SDS011;11070;51.336;12.340;2023-11-21T03:48:50;9.98;;;6.03;;
2061;SDS011;11070;51.336;12.340;2023-11-21T03:51:17;7.95;;;5.68;;
2061;SDS011;11070;51.336;12.340;2023-11-21T03:53:43;7.60;;;5.30;;
2061;SDS011;11070;51.336;12.340;2023-11-21T03:56:09;7.93;;;6.53;;
2061;SDS011;11070;51.336;12.340;2023-11-21T03:58:34;7.87;;;5.50;;
2061;SDS011;11070;51.336;12.340;2023-11-21T04:01:00;10.30;;;5.97;;
2061;SDS011;11070;51.336;12.340;2023-11-21T04:03:26;8.40;;;6.10;;
2061;SDS011;11070;51.336;12.340;2023-11-21T04:05:52;7.43;;;5.37;;
2061;SDS011;11070;51.336;12.340;2023-11-21T04:08:17;13.97;;;6.30;;
2061;SDS011;11070;51.336;12.340;2023-11-21T04:10:43;8.60;;;6.07;;
2061;SDS011;11070;51.336;12.340;2023-11-21T04:13:09;11.93;;;6.47;;
2061;SDS011;11070;51.336;12.340;2023-11-21T04:15:35;9.55;;;6.10;;
2061;SDS011;11070;51.336;12.340;2023-11-21T04:18:01;8.40;;;5.40;;
2061;SDS011;11070;51.336;12.340;2023-11-21T04:20:26;8.43;;;5.80;;
2061;SDS011;11070;51.336;12.340;2023-11-21T04:22:52;8.57;;;5.97;;
2061;SDS011;11070;51.336;12.340;2023-11-21T04:25:18;7.70;;;5.97;;
2061;SDS011;11070;51.336;12.340;2023-11-21T04:27:44;10.93;;;6.37;;
2061;SDS011;11070;51.336;12.340;2023-11-21T04:30:11;7.85;;;5.78;;
2061;SDS011;11070;51.336;12.340;2023-11-21T04:32:37;8.23;;;6.13;;
2061;SDS011;11070;51.336;12.340;2023-11-21T04:35:04;5.85;;;5.15;;
2061;SDS011;11070;51.336;12.340;2023-11-21T04:37:30;8.90;;;6.00;;
2061;SDS011;11070;51.336;12.340;2023-11-21T04:39:56;8.77;;;5.70;;
2061;SDS011;11070;51.336;12.340;2023-11-21T04:42:21;8.30;;;5.60;;
2061;SDS011;11070;51.336;12.340;2023-11-21T04:44:48;7.87;;;5.13;;
2061;SDS011;11070;51.336;12.340;2023-11-21T04:47:14;12.75;;;5.78;;
2061;SDS011;11070;51.336;12.340;2023-11-21T04:49:41;8.80;;;5.57;;
2061;SDS011;11070;51.336;12.340;2023-11-21T04:52:08;6.05;;;5.40;;
2061;SDS011;11070;51.336;12.340;2023-11-21T04:54:35;13.73;;;6.17;;
2061;SDS011;11070;51.336;12.340;2023-11-21T04:57:01;9.20;;;5.82;;
2061;SDS011;11070;51.336;12.340;2023-11-21T04:59:27;11.00;;;5.63;;
2061;SDS011;11070;51.336;12.340;2023-11-21T05:01:53;8.27;;;5.40;;
2061;SDS011;11070;51.336;12.340;2023-11-21T05:04:19;9.55;;;5.82;;
2061;SDS011;11070;51.336;12.340;2023-11-21T05:06:47;9.00;;;5.40;;
2061;SDS011;11070;51.336;12.340;2023-11-21T05:09:13;8.20;;;6.05;;
2061;SDS011;11070;51.336;12.340;2023-11-21T05:11:39;9.00;;;6.43;;
2061;SDS011;11070;51.336;12.340;2023-11-21T05:14:05;9.18;;;6.60;;
2061;SDS011;11070;51.336;12.340;2023-11-21T05:16:31;9.60;;;6.20;;
2061;SDS011;11070;51.336;12.340;2023-11-21T05:18:58;10.00;;;6.60;;
2061;SDS011;11070;51.336;12.340;2023-11-21T05:21:26;9.45;;;6.03;;
2061;SDS011;11070;51.336;12.340;2023-11-21T05:23:52;9.30;;;7.10;;
2061;SDS011;11070;51.336;12.340;2023-11-21T05:26:18;12.03;;;6.30;;
2061;SDS011;11070;51.336;12.340;2023-11-21T05:28:43;9.00;;;7.10;;
2061;SDS011;11070;51.336;12.340;2023-11-21T05:31:09;8.13;;;6.10;;
2061;SDS011;11070;51.336;12.340;2023-11-21T05:33:35;8.55;;;6.22;;
2061;SDS011;11070;51.336;12.340;2023-11-21T05:36:01;9.15;;;6.72;;
2061;SDS011;11070;51.336;12.340;2023-11-21T05:38:27;10.57;;;6.97;;
2061;SDS011;11070;51.336;12.340;2023-11-21T05:40:53;12.03;;;6.80;;
2061;SDS011;11070;51.336;12.340;2023-11-21T05:43:19;11.95;;;8.10;;
2061;SDS011;11070;51.336;12.340;2023-11-21T05:45:45;7.57;;;6.40;;
2061;SDS011;11070;51.336;12.340;2023-11-21T05:48:11;8.05;;;6.32;;
2061;SDS011;11070;51.336;12.340;2023-11-21T05:50:37;8.20;;;6.53;;
2061;SDS011;11070;51.336;12.340;2023-11-21T05:53:03;9.33;;;6.50;;
2061;SDS011;11070;51.336;12.340;2023-11-21T05:55:29;11.33;;;6.97;;
2061;SDS011;11070;51.336;12.340;2023-11-21T05:57:54;12.03;;;6.73;;
2061;SDS011;11070;51.336;12.340;2023-11-21T06:00:20;8.40;;;6.60;;
2061;SDS011;11070;51.336;12.340;2023-11-21T06:02:51;12.13;;;7.45;;
2061;SDS011;11070;51.336;12.340;2023-11-21T06:05:20;9.60;;;6.95;;
2061;SDS011;11070;51.336;12.340;2023-11-21T06:07:48;13.32;;;6.95;;
2061;SDS011;11070;51.336;12.340;2023-11-21T06:10:14;12.32;;;6.75;;
2061;SDS011;11070;51.336;12.340;2023-11-21T06:12:42;8.60;;;6.85;;
2061;SDS011;11070;51.336;12.340;2023-11-21T06:15:09;11.27;;;7.80;;
2061;SDS011;11070;51.336;12.340;2023-11-21T06:17:38;10.60;;;7.10;;
2061;SDS011;11070;51.336;12.340;2023-11-21T06:20:05;16.00;;;7.90;;
2061;SDS011;11070;51.336;12.340;2023-11-21T06:22:39;14.57;;;7.95;;
2061;SDS011;11070;51.336;12.340;2023-11-21T06:25:06;16.45;;;9.45;;
2061;SDS011;11070;51.336;12.340;2023-11-21T06:27:33;20.83;;;10.90;;
2061;SDS011;11070;51.336;12.340;2023-11-21T06:30:06;21.55;;;12.10;;
2061;SDS011;11070;51.336;12.340;2023-11-21T06:32:34;22.15;;;11.40;;
2061;SDS011;11070;51.336;12.340;2023-11-21T06:35:03;16.40;;;10.40;;
2061;SDS011;11070;51.336;12.340;2023-11-21T06:37:30;17.63;;;10.52;;
2061;SDS011;11070;51.336;12.340;2023-11-21T06:39:56;20.23;;;12.57;;
2061;SDS011;11070;51.336;12.340;2023-11-21T06:42:23;23.35;;;12.88;;
2061;SDS011;11070;51.336;12.340;2023-11-21T06:44:49;20.52;;;13.50;;
2061;SDS011;11070;51.336;12.340;2023-11-21T06:47:22;27.40;;;17.02;;
2061;SDS011;11070;51.336;12.340;2023-11-21T06:49:53;25.73;;;14.10;;
2061;SDS011;11070;51.336;12.340;2023-11-21T06:52:19;21.75;;;12.52;;
2061;SDS011;11070;51.336;12.340;2023-11-21T06:54:45;18.45;;;11.95;;
2061;SDS011;11070;51.336;12.340;2023-11-21T06:57:14;21.27;;;12.05;;
2061;SDS011;11070;51.336;12.340;2023-11-21T06:59:40;18.43;;;11.93;;
2061;SDS011;11070;51.336;12.340;2023-11-21T07:02:06;19.38;;;11.75;;
2061;SDS011;11070;51.336;12.340;2023-11-21T07:04:33;21.55;;;11.10;;
2061;SDS011;11070;51.336;12.340;2023-11-21T07:06:59;22.42;;;13.48;;
2061;SDS011;11070;51.336;12.340;2023-11-21T07:09:25;17.52;;;10.45;;
2061;SDS011;11070;51.336;12.340;2023-11-21T07:11:51;20.03;;;12.50;;
2061;SDS011;11070;51.336;12.340;2023-11-21T07:14:17;15.98;;;11.35;;
2061;SDS011;11070;51.336;12.340;2023-11-21T07:16:44;19.40;;;12.15;;
2061;SDS011;11070;51.336;12.340;2023-11-21T07:19:11;14.80;;;10.93;;
2061;SDS011;11070;51.336;12.340;2023-11-21T07:21:37;16.27;;;10.97;;
2061;SDS011;11070;51.336;12.340;2023-11-21T07:24:04;16.73;;;11.32;;
2061;SDS011;11070;51.336;12.340;2023-11-21T07:26:31;18.00;;;11.30;;
2061;SDS011;11070;51.336;12.340;2023-11-21T07:29:01;17.23;;;11.00;;
2061;SDS011;11070;51.336;12.340;2023-11-21T07:31:31;16.35;;;11.90;;
2061;SDS011;11070;51.336;12.340;2023-11-21T07:33:59;22.92;;;13.35;;
2061;SDS011;11070;51.336;12.340;2023-11-21T07:36:25;21.90;;;12.43;;
2061;SDS011;11070;51.336;12.340;2023-11-21T07:38:52;19.70;;;13.20;;
2061;SDS011;11070;51.336;12.340;2023-11-21T07:41:18;23.60;;;14.90;;
2061;SDS011;11070;51.336;12.340;2023-11-21T07:43:44;23.50;;;13.43;;
2061;SDS011;11070;51.336;12.340;2023-11-21T07:46:10;25.48;;;14.75;;
2061;SDS011;11070;51.336;12.340;2023-11-21T07:48:40;21.80;;;14.60;;
2061;SDS011;11070;51.336;12.340;2023-11-21T07:51:11;30.15;;;16.05;;
2061;SDS011;11070;51.336;12.340;2023-11-21T07:53:38;29.40;;;16.52;;
2061;SDS011;11070;51.336;12.340;2023-11-21T07:56:08;26.65;;;16.50;;
2061;SDS011;11070;51.336;12.340;2023-11-21T07:58:34;28.88;;;17.13;;
2061;SDS011;11070;51.336;12.340;2023-11-21T08:01:01;29.50;;;15.98;;
2061;SDS011;11070;51.336;12.340;2023-11-21T08:03:28;25.23;;;15.35;;
2061;SDS011;11070;51.336;12.340;2023-11-21T08:05:57;28.27;;;16.60;;
2061;SDS011;11070;51.336;12.340;2023-11-21T08:08:24;25.40;;;15.23;;
2061;SDS011;11070;51.336;12.340;2023-11-21T08:10:51;24.38;;;14.40;;
2061;SDS011;11070;51.336;12.340;2023-11-21T08:13:26;21.58;;;13.88;;
2061;SDS011;11070;51.336;12.340;2023-11-21T08:15:56;24.30;;;15.57;;
2061;SDS011;11070;51.336;12.340;2023-11-21T08:18:26;26.17;;;15.45;;
2061;SDS011;11070;51.336;12.340;2023-11-21T08:20:52;25.92;;;16.00;;
2061;SDS011;11070;51.336;12.340;2023-11-21T08:23:20;25.60;;;15.95;;
2061;SDS011;11070;51.336;12.340;2023-11-21T08:25:50;24.15;;;14.98;;
2061;SDS011;11070;51.336;12.340;2023-11-21T08:28:16;27.63;;;15.73;;
2061;SDS011;11070;51.336;12.340;2023-11-21T08:30:42;24.90;;;14.85;;
2061;SDS011;11070;51.336;12.340;2023-11-21T08:33:08;23.67;;;13.87;;
2061;SDS011;11070;51.336;12.340;2023-11-21T08:35:34;17.83;;;12.17;;
2061;SDS011;11070;51.336;12.340;2023-11-21T08:38:01;19.90;;;13.07;;
2061;SDS011;11070;51.336;12.340;2023-11-21T08:40:30;21.67;;;12.60;;
2061;SDS011;11070;51.336;12.340;2023-11-21T08:42:56;19.40;;;12.43;;
2061;SDS011;11070;51.336;12.340;2023-11-21T08:45:23;18.95;;;11.90;;
2061;SDS011;11070;51.336;12.340;2023-11-21T08:47:50;20.23;;;11.70;;
2061;SDS011;11070;51.336;12.340;2023-11-21T08:50:16;14.60;;;10.07;;
2061;SDS011;11070;51.336;12.340;2023-11-21T08:52:44;17.27;;;11.50;;
2061;SDS011;11070;51.336;12.340;2023-11-21T08:55:13;18.52;;;11.70;;
2061;SDS011;11070;51.336;12.340;2023-11-21T08:57:39;19.02;;;11.65;;
2061;SDS011;11070;51.336;12.340;2023-11-21T09:00:06;13.75;;;9.90;;
2061;SDS011;11070;51.336;12.340;2023-11-21T09:02:37;14.40;;;10.40;;
2061;SDS011;11070;51.336;12.340;2023-11-21T09:05:06;15.65;;;10.55;;
2061;SDS011;11070;51.336;12.340;2023-11-21T09:07:39;19.15;;;11.93;;
2061;SDS011;11070;51.336;12.340;2023-11-21T09:10:06;14.32;;;10.07;;
2061;SDS011;11070;51.336;12.340;2023-11-21T09:12:32;14.32;;;10.00;;
2061;SDS011;11070;51.336;12.340;2023-11-21T09:15:00;15.40;;;10.95;;
2061;SDS011;11070;51.336;12.340;2023-11-21T09:17:33;15.88;;;10.32;;
2061;SDS011;11070;51.336;12.340;2023-11-21T09:20:02;19.52;;;11.25;;
2061;SDS011;11070;51.336;12.340;2023-11-21T09:22:30;16.85;;;10.70;;
2061;SDS011;11070;51.336;12.340;2023-11-21T09:24:56;13.60;;;9.85;;
2061;SDS011;11070;51.336;12.340;2023-11-21T09:27:22;18.75;;;11.50;;
2061;SDS011;11070;51.336;12.340;2023-11-21T09:29:48;16.25;;;10.93;;
2061;SDS011;11070;51.336;12.340;2023-11-21T09:32:14;17.60;;;11.03;;
2061;SDS011;11070;51.336;12.340;2023-11-21T09:34:41;15.25;;;10.70;;
2061;SDS011;11070;51.336;12.340;2023-11-21T09:37:07;16.60;;;11.27;;
2061;SDS011;11070;51.336;12.340;2023-11-21T09:39:33;18.75;;;10.85;;
2061;SDS011;11070;51.336;12.340;2023-11-21T09:42:04;15.55;;;10.98;;
2061;SDS011;11070;51.336;12.340;2023-11-21T09:47:24;16.45;;;10.57;;
2061;SDS011;11070;51.336;12.340;2023-11-21T09:49:49;14.83;;;9.70;;
2061;SDS011;11070;51.336;12.340;2023-11-21T09:52:26;13.10;;;9.60;;
2061;SDS011;11070;51.336;12.340;2023-11-21T09:54:53;12.15;;;8.20;;
2061;SDS011;11070;51.336;12.340;2023-11-21T09:57:20;12.05;;;9.25;;
2061;SDS011;11070;51.336;12.340;2023-11-21T09:59:51;12.43;;;8.88;;
2061;SDS011;11070;51.336;12.340;2023-11-21T10:02:24;13.52;;;8.00;;
2061;SDS011;11070;51.336;12.340;2023-11-21T10:04:53;11.77;;;7.50;;
2061;SDS011;11070;51.336;12.340;2023-11-21T10:07:20;10.55;;;6.70;;
2061;SDS011;11070;51.336;12.340;2023-11-21T10:09:46;7.20;;;6.00;;
2061;SDS011;11070;51.336;12.340;2023-11-21T10:12:15;9.20;;;7.00;;
2061;SDS011;11070;51.336;12.340;2023-11-21T10:14:42;8.85;;;6.90;;
2061;SDS011;11070;51.336;12.340;2023-11-21T10:17:10;9.70;;;7.10;;
2061;SDS011;11070;51.336;12.340;2023-11-21T10:19:37;7.40;;;6.38;;
2061;SDS011;11070;51.336;12.340;2023-11-21T10:22:04;10.07;;;7.88;;
2061;SDS011;11070;51.336;12.340;2023-11-21T10:24:32;8.40;;;6.57;;
2061;SDS011;11070;51.336;12.340;2023-11-21T10:26:58;8.80;;;7.25;;
2061;SDS011;11070;51.336;12.340;2023-11-21T10:29:28;9.07;;;7.20;;
2061;SDS011;11070;51.336;12.340;2023-11-21T10:31:55;8.63;;;6.68;;
2061;SDS011;11070;51.336;12.340;2023-11-21T10:34:23;8.82;;;5.90;;
2061;SDS011;11070;51.336;12.340;2023-11-21T10:36:49;8.30;;;7.30;;
2061;SDS011;11070;51.336;12.340;2023-11-21T10:39:19;9.70;;;7.40;;
2061;SDS011;11070;51.336;12.340;2023-11-21T10:41:48;9.07;;;6.90;;
2061;SDS011;11070;51.336;12.340;2023-11-21T10:44:15;9.25;;;6.88;;
2061;SDS011;11070;51.336;12.340;2023-11-21T10:46:46;9.63;;;6.38;;
2061;SDS011;11070;51.336;12.340;2023-11-21T10:49:16;7.95;;;6.10;;
2061;SDS011;11070;51.336;12.340;2023-11-21T10:51:43;7.07;;;5.78;;
2061;SDS011;11070;51.336;12.340;2023-11-21T10:54:09;7.93;;;6.50;;
2061;SDS011;11070;51.336;12.340;2023-11-21T10:56:35;11.97;;;6.47;;
2061;SDS011;11070;51.336;12.340;2023-11-21T10:59:06;8.38;;;6.30;;
2061;SDS011;11070;51.336;12.340;2023-11-21T11:01:36;11.48;;;6.40;;
2061;SDS011;11070;51.336;12.340;2023-11-21T11:04:02;6.90;;;6.10;;
2061;SDS011;11070;51.336;12.340;2023-11-21T11:06:34;7.82;;;6.47;;
2061;SDS011;11070;51.336;12.340;2023-11-21T11:09:00;10.27;;;7.03;;
2061;SDS011;11070;51.336;12.340;2023-11-21T11:11:27;6.45;;;5.72;;
2061;SDS011;11070;51.336;12.340;2023-11-21T11:13:55;8.43;;;6.53;;
2061;SDS011;11070;51.336;12.340;2023-11-21T11:16:25;8.73;;;6.75;;
2061;SDS011;11070;51.336;12.340;2023-11-21T11:18:53;9.35;;;6.95;;
2061;SDS011;11070;51.336;12.340;2023-11-21T11:27:07;8.25;;;6.95;;
2061;SDS011;11070;51.336;12.340;2023-11-21T11:30:27;10.95;;;7.40;;
2061;SDS011;11070;51.336;12.340;2023-11-21T11:38:22;10.60;;;7.78;;
2061;SDS011;11070;51.336;12.340;2023-11-21T11:40:52;12.38;;;8.38;;
2061;SDS011;11070;51.336;12.340;2023-11-21T11:43:25;12.55;;;8.48;;
2061;SDS011;11070;51.336;12.340;2023-11-21T11:45:51;13.70;;;8.75;;
2061;SDS011;11070;51.336;12.340;2023-11-21T11:48:21;12.13;;;8.40;;
2061;SDS011;11070;51.336;12.340;2023-11-21T11:51:03;11.55;;;9.30;;
2061;SDS011;11070;51.336;12.340;2023-11-21T11:53:37;14.10;;;9.27;;
2061;SDS011;11070;51.336;12.340;2023-11-21T11:56:23;13.50;;;8.80;;
2061;SDS011;11070;51.336;12.340;2023-11-21T11:58:53;14.48;;;9.45;;
2061;SDS011;11070;51.336;12.340;2023-11-21T12:01:20;13.18;;;9.45;;
2061;SDS011;11070;51.336;12.340;2023-11-21T12:06:44;13.65;;;8.90;;
2061;SDS011;11070;51.336;12.340;2023-11-21T12:09:19;15.37;;;10.63;;
2061;SDS011;11070;51.336;12.340;2023-11-21T12:11:46;11.80;;;8.98;;
2061;SDS011;11070;51.336;12.340;2023-11-21T12:14:13;12.80;;;8.07;;
2061;SDS011;11070;51.336;12.340;2023-11-21T12:16:39;14.40;;;8.90;;
2061;SDS011;11070;51.336;12.340;2023-11-21T12:19:05;12.38;;;7.82;;
2061;SDS011;11070;51.336;12.340;2023-11-21T12:21:31;12.30;;;8.53;;
2061;SDS011;11070;51.336;12.340;2023-11-21T12:23:58;13.70;;;8.20;;
2061;SDS011;11070;51.336;12.340;2023-11-21T12:26:24;10.80;;;7.65;;
2061;SDS011;11070;51.336;12.340;2023-11-21T12:28:53;10.67;;;7.50;;
2061;SDS011;11070;51.336;12.340;2023-11-21T12:31:22;11.45;;;7.35;;
2061;SDS011;11070;51.336;12.340;2023-11-21T12:33:50;9.90;;;6.90;;
2061;SDS011;11070;51.336;12.340;2023-11-21T12:36:17;9.63;;;6.88;;
2061;SDS011;11070;51.336;12.340;2023-11-21T12:38:42;11.10;;;8.17;;
2061;SDS011;11070;51.336;12.340;2023-11-21T12:41:09;13.87;;;8.13;;
2061;SDS011;11070;51.336;12.340;2023-11-21T12:43:35;13.85;;;8.60;;
2061;SDS011;11070;51.336;12.340;2023-11-21T12:46:07;9.60;;;6.80;;
2061;SDS011;11070;51.336;12.340;2023-11-21T12:48:38;9.90;;;7.13;;
2061;SDS011;11070;51.336;12.340;2023-11-21T12:51:07;14.10;;;9.45;;
2061;SDS011;11070;51.336;12.340;2023-11-21T12:53:33;15.07;;;10.23;;
2061;SDS011;11070;51.336;12.340;2023-11-21T12:56:06;20.42;;;12.90;;
2061;SDS011;11070;51.336;12.340;2023-11-21T12:58:34;21.70;;;12.20;;
2061;SDS011;11070;51.336;12.340;2023-11-21T13:01:01;16.92;;;11.40;;
2061;SDS011;11070;51.336;12.340;2023-11-21T13:03:29;22.17;;;13.68;;
2061;SDS011;11070;51.336;12.340;2023-11-21T13:05:55;22.10;;;12.90;;
2061;SDS011;11070;51.336;12.340;2023-11-21T13:08:24;18.90;;;12.40;;
2061;SDS011;11070;51.336;12.340;2023-11-21T13:10:54;21.45;;;13.57;;
2061;SDS011;11070;51.336;12.340;2023-11-21T13:13:21;20.52;;;13.30;;
2061;SDS011;11070;51.336;12.340;2023-11-21T13:15:53;21.38;;;13.05;;
2061;SDS011;11070;51.336;12.340;2023-11-21T13:18:22;20.48;;;13.63;;
2061;SDS011;11070;51.336;12.340;2023-11-21T13:20:49;26.25;;;15.68;;
2061;SDS011;11070;51.336;12.340;2023-11-21T13:23:15;27.33;;;15.37;;
2061;SDS011;11070;51.336;12.340;2023-11-21T13:25:44;21.92;;;13.57;;
2061;SDS011;11070;51.336;12.340;2023-11-21T13:28:12;18.65;;;12.77;;
2061;SDS011;11070;51.336;12.340;2023-11-21T13:30:39;22.23;;;14.23;;
2061;SDS011;11070;51.336;12.340;2023-11-21T13:33:05;21.57;;;13.20;;
2061;SDS011;11070;51.336;12.340;2023-11-21T13:35:37;19.95;;;13.32;;
2061;SDS011;11070;51.336;12.340;2023-11-21T13:38:16;18.38;;;12.43;;
2061;SDS011;11070;51.336;12.340;2023-11-21T13:40:49;19.33;;;13.27;;
2061;SDS011;11070;51.336;12.340;2023-11-21T13:43:18;21.88;;;13.25;;
2061;SDS011;11070;51.336;12.340;2023-11-21T13:45:47;18.90;;;13.00;;
2061;SDS011;11070;51.336;12.340;2023-11-21T13:48:16;17.20;;;12.15;;
2061;SDS011;11070;51.336;12.340;2023-11-21T13:50:50;18.75;;;13.30;;
2061;SDS011;11070;51.336;12.340;2023-11-21T13:53:24;22.35;;;14.77;;
2061;SDS011;11070;51.336;12.340;2023-11-21T13:55:51;20.00;;;13.95;;
2061;SDS011;11070;51.336;12.340;2023-11-21T13:58:22;20.48;;;13.40;;
2061;SDS011;11070;51.336;12.340;2023-11-21T14:01:09;15.77;;;10.50;;
2061;SDS011;11070;51.336;12.340;2023-11-21T14:03:56;14.20;;;10.15;;
2061;SDS011;11070;51.336;12.340;2023-11-21T14:06:27;16.10;;;10.32;;
2061;SDS011;11070;51.336;12.340;2023-11-21T14:08:59;14.95;;;10.48;;
2061;SDS011;11070;51.336;12.340;2023-11-21T14:11:31;15.45;;;9.75;;
2061;SDS011;11070;51.336;12.340;2023-11-21T14:13:59;12.82;;;9.25;;
2061;SDS011;11070;51.336;12.340;2023-11-21T14:16:25;10.60;;;8.70;;
2061;SDS011;11070;51.336;12.340;2023-11-21T14:18:50;10.10;;;6.33;;
2061;SDS011;11070;51.336;12.340;2023-11-21T14:21:26;7.63;;;6.50;;
2061;SDS011;11070;51.336;12.340;2023-11-21T14:23:52;9.83;;;6.60;;
2061;SDS011;11070;51.336;12.340;2023-11-21T14:26:20;8.15;;;6.57;;
2061;SDS011;11070;51.336;12.340;2023-11-21T14:28:45;7.10;;;5.57;;
2061;SDS011;11070;51.336;12.340;2023-11-21T14:31:13;7.90;;;6.43;;
2061;SDS011;11070;51.336;12.340;2023-11-21T14:33:42;7.03;;;5.70;;
2061;SDS011;11070;51.336;12.340;2023-11-21T14:36:08;5.90;;;5.20;;
2061;SDS011;11070;51.336;12.340;2023-11-21T14:38:35;9.18;;;5.90;;
2061;SDS011;11070;51.336;12.340;2023-11-21T14:41:02;7.00;;;4.97;;
2061;SDS011;11070;51.336;12.340;2023-11-21T14:43:29;6.53;;;5.43;;
2061;SDS011;11070;51.336;12.340;2023-11-21T14:45:59;8.70;;;6.82;;
2061;SDS011;11070;51.336;12.340;2023-11-21T14:48:24;9.23;;;7.13;;
2061;SDS011;11070;51.336;12.340;2023-11-21T14:51:07;6.57;;;5.55;;
2061;SDS011;11070;51.336;12.340;2023-11-21T14:53:55;11.27;;;7.97;;
2061;SDS011;11070;51.336;12.340;2023-11-21T14:56:34;7.40;;;6.22;;